Main page
METAR-TAF:

METAR-TAF

Airports :

Tak Airport

Tak, Thailand

latitude: 16-53N, longitude: 099-09E, elevation: 121 m

METAR: missing

Time: 00:30 (17:30 UTC)

Forecast

The report was made 6 hours and 30 minutes ago, at 11:00 UTC
Forecast valid from 22 at 12 UTC to 23 at 12 UTC
Wind 8 kt from the West
Visibility: 6000 m
Scattered clouds at a height of 3000 ft
Becoming
from 22 at 21 UTC to 22 at 23 UTC
Visibility: 4000 m
haze
Becoming
from 23 at 01 UTC to 23 at 03 UTC
Visibility: 6000 m

TAF: VTPT 221100Z 2212/2312 27008KT 6000 SCT030 BECMG 2221/2223 4000 HZ BECMG 2301/2303 6000 NSW

Weather observations and forecasts of more than 4000 airports (METAR and TAF reports).

The available stations are represented by yellow and red dots on the map.

Hover mouse over dot to see the name of the station.

Then click to see weather observations and forecasts.

To change the map : click on the green buttons with a black cross to zoom in, on the green button with a dash to zoom out, or on the green arrows for adjacent maps.


METAR-TAF: